Current Weather

Lytton

Lytton, Canada (CWLY)

Report from: Thursday, May 19, 2022 11:00 AM PDT
Current time: Thursday, May 19, 2022 11:22 AM PDT

Nearby weather
Weather history
Weather forecast

Temperature10.0°C (50.0°F)
Wind chill7.0°C (44.7°F)
Dew point2.0°C (35.6°F)
Winds 13 kts (6.7 m/s, 15 mph) Vrb
Wind gusts 21 kts (10.8 m/s, 24.2 mph)
Winds variableWinds variable from South (170°) to West-Southwest (240°)
Visibility9 mi. (14.5 km)
Clouds Ceiling: Broken clouds 5,500 ft. (1,676 m)
Broken clouds 8,500 ft. (2,591 m)
Altimeter30.05 in.Hg (1018 mB)
Relative humidity58 %
Density altitude-639 ft. (-195 m)
Sea-level pressure101.8 kPa (1018 mB, 30.07 in.Hg)
Remarks Fully automated report
Flight conditions Visual Meteorological Conditions
Raw dataCWLY 191800Z AUTO 18013G21KT 170V240 9SM BKN055 BKN085 10/02 A3005 RMK SLP183
An error has occurred. This application may no longer respond until reloaded. Reload 🗙